UAL2147 KRDU-KIND
Flight info
| Callsign | UAL2147 |
|---|---|
| Flight time | 1h 24m |
| Altitude | 32000 |
| Route | LWOOD5 DANCO ZIEBR HAGAL GIIBS4 |
| Aircraft | A320/M-SDE3FGHIRWY/LB1 |
Departure
| Time | 2026-05-07 02:16 |
|---|---|
| Airport | Raleigh-Durham International Airport (KRDU) |
Arrival
| Time | 2026-05-07 03:41 |
|---|---|
| Airport | Indianapolis International Airport (KIND) |
| Time | Latitude | Longitude | Altitude | Speed | Heading |
|---|---|---|---|---|---|
| 2026-05-07 01:48 | 35.87695 | -78.79478 | 384 ft | 0 kts | 136° |
| 2026-05-07 02:03 | 35.87701 | -78.79485 | 383 ft | 3 kts | 136° |
| 2026-05-07 02:03 | 35.87716 | -78.79502 | 383 ft | 3 kts | 134° |
| 2026-05-07 02:04 | 35.87730 | -78.79520 | 383 ft | 3 kts | 132° |
| 2026-05-07 02:04 | 35.87743 | -78.79539 | 384 ft | 2 kts | 128° |
| 2026-05-07 02:06 | 35.87743 | -78.79538 | 384 ft | 1 kts | 128° |
| 2026-05-07 02:06 | 35.87743 | -78.79529 | 384 ft | 1 kts | 85° |
| 2026-05-07 02:06 | 35.87749 | -78.79524 | 384 ft | 1 kts | 43° |
| 2026-05-07 02:06 | 35.87769 | -78.79504 | 384 ft | 9 kts | 42° |
| 2026-05-07 02:07 | 35.87819 | -78.79444 | 386 ft | 11 kts | 45° |
| 2026-05-07 02:07 | 35.87949 | -78.79282 | 390 ft | 14 kts | 45° |
| 2026-05-07 02:07 | 35.88037 | -78.79174 | 392 ft | 20 kts | 47° |
| 2026-05-07 02:08 | 35.88138 | -78.79044 | 392 ft | 22 kts | 46° |
| 2026-05-07 02:08 | 35.88219 | -78.78944 | 392 ft | 15 kts | 46° |
| 2026-05-07 02:08 | 35.88291 | -78.78855 | 393 ft | 15 kts | 45° |
| 2026-05-07 02:08 | 35.88367 | -78.78762 | 392 ft | 16 kts | 45° |
| 2026-05-07 02:09 | 35.88443 | -78.78666 | 398 ft | 15 kts | 45° |
| 2026-05-07 02:09 | 35.88516 | -78.78577 | 400 ft | 15 kts | 44° |
| 2026-05-07 02:09 | 35.88591 | -78.78487 | 402 ft | 16 kts | 44° |
| 2026-05-07 02:09 | 35.88665 | -78.78392 | 406 ft | 15 kts | 48° |
| 2026-05-07 02:10 | 35.88742 | -78.78294 | 406 ft | 18 kts | 44° |
| 2026-05-07 02:10 | 35.88850 | -78.78164 | 406 ft | 23 kts | 45° |
| 2026-05-07 02:10 | 35.88965 | -78.78021 | 407 ft | 24 kts | 51° |
| 2026-05-07 02:10 | 35.89028 | -78.77863 | 409 ft | 15 kts | 48° |
| 2026-05-07 02:11 | 35.89093 | -78.77782 | 410 ft | 11 kts | 44° |
| 2026-05-07 02:11 | 35.89149 | -78.77715 | 411 ft | 11 kts | 44° |
| 2026-05-07 02:11 | 35.89206 | -78.77654 | 412 ft | 10 kts | 27° |
| 2026-05-07 02:11 | 35.89262 | -78.77679 | 407 ft | 8 kts | 313° |
| 2026-05-07 02:12 | 35.89270 | -78.77689 | 418 ft | 0 kts | 314° |
| 2026-05-07 02:12 | 35.89272 | -78.77691 | 418 ft | 2 kts | 314° |
| 2026-05-07 02:13 | 35.89286 | -78.77708 | 414 ft | 4 kts | 315° |
| 2026-05-07 02:13 | 35.89300 | -78.77725 | 419 ft | 0 kts | 315° |
| 2026-05-07 02:14 | 35.89301 | -78.77727 | 419 ft | 2 kts | 315° |
| 2026-05-07 02:14 | 35.89360 | -78.77800 | 412 ft | 12 kts | 306° |
| 2026-05-07 02:14 | 35.89340 | -78.77861 | 417 ft | 1 kts | 225° |
| 2026-05-07 02:15 | 35.89339 | -78.77862 | 417 ft | 0 kts | 225° |
| 2026-05-07 02:15 | 35.89339 | -78.77863 | 412 ft | 1 kts | 225° |
| 2026-05-07 02:15 | 35.89244 | -78.77979 | 413 ft | 52 kts | 225° |
| 2026-05-07 02:16 | 35.88828 | -78.78491 | 409 ft | 113 kts | 225° |
| 2026-05-07 02:16 | 35.88160 | -78.79311 | 394 ft | 160 kts | 225° |
| 2026-05-07 02:16 | 35.87345 | -78.80308 | 866 ft | 163 kts | 224° |
| 2026-05-07 02:16 | 35.86526 | -78.81289 | 1478 ft | 165 kts | 223° |
| 2026-05-07 02:17 | 35.85683 | -78.82278 | 2074 ft | 170 kts | 223° |
| 2026-05-07 02:17 | 35.84807 | -78.83330 | 2486 ft | 186 kts | 224° |
| 2026-05-07 02:17 | 35.83836 | -78.84521 | 2805 ft | 209 kts | 224° |
| 2026-05-07 02:17 | 35.82745 | -78.85859 | 3184 ft | 234 kts | 224° |
| 2026-05-07 02:18 | 35.81554 | -78.87318 | 3828 ft | 246 kts | 224° |
| 2026-05-07 02:18 | 35.80335 | -78.88807 | 4763 ft | 247 kts | 225° |
| 2026-05-07 02:18 | 35.79102 | -78.90303 | 5597 ft | 251 kts | 225° |
| 2026-05-07 02:18 | 35.77938 | -78.91890 | 5896 ft | 249 kts | 238° |
| 2026-05-07 02:19 | 35.77337 | -78.93872 | 5988 ft | 250 kts | 261° |
| 2026-05-07 02:19 | 35.77509 | -78.96007 | 6006 ft | 257 kts | 285° |
| 2026-05-07 02:19 | 35.78481 | -78.97888 | 6014 ft | 269 kts | 309° |
| 2026-05-07 02:19 | 35.79885 | -78.99441 | 6015 ft | 272 kts | 312° |
| 2026-05-07 02:20 | 35.81305 | -79.00979 | 6009 ft | 272 kts | 312° |
| 2026-05-07 02:20 | 35.82725 | -79.02514 | 6008 ft | 271 kts | 312° |
| 2026-05-07 02:20 | 35.84151 | -79.04057 | 6461 ft | 274 kts | 312° |
| 2026-05-07 02:20 | 35.85562 | -79.05590 | 7321 ft | 274 kts | 312° |
| 2026-05-07 02:21 | 35.86999 | -79.07159 | 8094 ft | 277 kts | 312° |
| 2026-05-07 02:21 | 35.88451 | -79.08748 | 8812 ft | 281 kts | 313° |
| 2026-05-07 02:21 | 35.89921 | -79.10362 | 9545 ft | 284 kts | 313° |
| 2026-05-07 02:21 | 35.91403 | -79.11993 | 10251 ft | 288 kts | 313° |
| 2026-05-07 02:22 | 35.92954 | -79.13710 | 10439 ft | 311 kts | 313° |
| 2026-05-07 02:22 | 35.94617 | -79.15553 | 10571 ft | 332 kts | 314° |
| 2026-05-07 02:22 | 35.96393 | -79.17511 | 10700 ft | 352 kts | 314° |
| 2026-05-07 02:22 | 35.98260 | -79.19563 | 10962 ft | 365 kts | 314° |
| 2026-05-07 02:23 | 36.00175 | -79.21657 | 11544 ft | 369 kts | 314° |
| 2026-05-07 02:23 | 36.02059 | -79.23805 | 11898 ft | 366 kts | 309° |
| 2026-05-07 02:23 | 36.03591 | -79.26273 | 11978 ft | 359 kts | 298° |
| 2026-05-07 02:23 | 36.04682 | -79.29021 | 12002 ft | 355 kts | 291° |
| 2026-05-07 02:24 | 36.05658 | -79.31821 | 11997 ft | 355 kts | 291° |
| 2026-05-07 02:24 | 36.06801 | -79.34533 | 11989 ft | 358 kts | 301° |
| 2026-05-07 02:24 | 36.08404 | -79.36904 | 11983 ft | 363 kts | 312° |
| 2026-05-07 02:24 | 36.10393 | -79.38794 | 11992 ft | 369 kts | 323° |
| 2026-05-07 02:25 | 36.12639 | -79.40426 | 11984 ft | 370 kts | 324° |
| 2026-05-07 02:25 | 36.14825 | -79.42016 | 11984 ft | 369 kts | 324° |
| 2026-05-07 02:25 | 36.17042 | -79.43633 | 11990 ft | 369 kts | 324° |
| 2026-05-07 02:25 | 36.19254 | -79.45253 | 11994 ft | 369 kts | 324° |
| 2026-05-07 02:26 | 36.21468 | -79.46875 | 11991 ft | 371 kts | 324° |
| 2026-05-07 02:26 | 36.23684 | -79.48498 | 11987 ft | 370 kts | 324° |
| 2026-05-07 02:26 | 36.25898 | -79.50118 | 11988 ft | 370 kts | 324° |
| 2026-05-07 02:26 | 36.28111 | -79.51741 | 11999 ft | 369 kts | 324° |
| 2026-05-07 02:27 | 36.30323 | -79.53360 | 11997 ft | 370 kts | 324° |
| 2026-05-07 02:27 | 36.32534 | -79.54981 | 12002 ft | 369 kts | 324° |
| 2026-05-07 02:27 | 36.34733 | -79.56603 | 11996 ft | 368 kts | 324° |
| 2026-05-07 02:27 | 36.36944 | -79.58228 | 11998 ft | 370 kts | 324° |
| 2026-05-07 02:28 | 36.39156 | -79.59851 | 11997 ft | 369 kts | 324° |
| 2026-05-07 02:28 | 36.41365 | -79.61476 | 12003 ft | 369 kts | 324° |
| 2026-05-07 02:28 | 36.43579 | -79.63109 | 12011 ft | 370 kts | 324° |
| 2026-05-07 02:28 | 36.45795 | -79.64738 | 12011 ft | 370 kts | 324° |
| 2026-05-07 02:29 | 36.48011 | -79.66364 | 12006 ft | 370 kts | 324° |
| 2026-05-07 02:29 | 36.50227 | -79.67985 | 12011 ft | 369 kts | 324° |
| 2026-05-07 02:29 | 36.52430 | -79.69602 | 12018 ft | 368 kts | 324° |
| 2026-05-07 02:29 | 36.54640 | -79.71234 | 12019 ft | 371 kts | 324° |
| 2026-05-07 02:30 | 36.56827 | -79.72927 | 12035 ft | 368 kts | 319° |
| 2026-05-07 02:30 | 36.58724 | -79.75044 | 12619 ft | 365 kts | 308° |
| 2026-05-07 02:30 | 36.60248 | -79.77498 | 13233 ft | 363 kts | 300° |
| 2026-05-07 02:30 | 36.61631 | -79.80126 | 13802 ft | 364 kts | 300° |
| 2026-05-07 02:31 | 36.63024 | -79.82780 | 14366 ft | 368 kts | 300° |
| 2026-05-07 02:31 | 36.64433 | -79.85467 | 14971 ft | 370 kts | 299° |
| 2026-05-07 02:31 | 36.65846 | -79.88161 | 15500 ft | 374 kts | 299° |
| 2026-05-07 02:31 | 36.67273 | -79.90881 | 16043 ft | 377 kts | 299° |
| 2026-05-07 02:32 | 36.68708 | -79.93634 | 16588 ft | 380 kts | 299° |
| 2026-05-07 02:32 | 36.70145 | -79.96402 | 17158 ft | 382 kts | 299° |
| 2026-05-07 02:32 | 36.71101 | -79.98243 | 17500 ft | 383 kts | 299° |
| 2026-05-07 02:32 | 36.72555 | -80.01046 | 18027 ft | 386 kts | 298° |
| 2026-05-07 02:33 | 36.74020 | -80.03856 | 18562 ft | 387 kts | 298° |
| 2026-05-07 02:33 | 36.75488 | -80.06671 | 19054 ft | 389 kts | 298° |
| 2026-05-07 02:33 | 36.76961 | -80.09504 | 19494 ft | 391 kts | 298° |
| 2026-05-07 02:33 | 36.78443 | -80.12363 | 19923 ft | 394 kts | 298° |
| 2026-05-07 02:34 | 36.79934 | -80.15244 | 20337 ft | 398 kts | 298° |
| 2026-05-07 02:34 | 36.81443 | -80.18149 | 20782 ft | 399 kts | 298° |
| 2026-05-07 02:34 | 36.82955 | -80.21062 | 21228 ft | 400 kts | 298° |
| 2026-05-07 02:34 | 36.84472 | -80.23986 | 21622 ft | 402 kts | 298° |
| 2026-05-07 02:35 | 36.85992 | -80.26926 | 21991 ft | 404 kts | 297° |
| 2026-05-07 02:35 | 36.87519 | -80.29884 | 22348 ft | 406 kts | 298° |
| 2026-05-07 02:35 | 36.89055 | -80.32856 | 22688 ft | 408 kts | 297° |
| 2026-05-07 02:35 | 36.90594 | -80.35839 | 22992 ft | 410 kts | 297° |
| 2026-05-07 02:36 | 36.92120 | -80.38799 | 23305 ft | 412 kts | 297° |
| 2026-05-07 02:36 | 36.93674 | -80.41817 | 23623 ft | 414 kts | 297° |
| 2026-05-07 02:36 | 36.95232 | -80.44847 | 23948 ft | 415 kts | 297° |
| 2026-05-07 02:36 | 36.96795 | -80.47889 | 24259 ft | 416 kts | 297° |
| 2026-05-07 02:37 | 36.98361 | -80.50939 | 24610 ft | 416 kts | 297° |
| 2026-05-07 02:37 | 36.99922 | -80.53978 | 25098 ft | 414 kts | 297° |
| 2026-05-07 02:37 | 37.01470 | -80.56994 | 25592 ft | 411 kts | 296° |
| 2026-05-07 02:37 | 37.03008 | -80.59990 | 26098 ft | 408 kts | 296° |
| 2026-05-07 02:38 | 37.04536 | -80.62965 | 26562 ft | 406 kts | 296° |
| 2026-05-07 02:38 | 37.06053 | -80.65926 | 27047 ft | 402 kts | 296° |
| 2026-05-07 02:38 | 37.07557 | -80.68868 | 27518 ft | 400 kts | 296° |
| 2026-05-07 02:38 | 37.08901 | -80.71879 | 27970 ft | 392 kts | 288° |
| 2026-05-07 02:39 | 37.09836 | -80.75049 | 28429 ft | 386 kts | 283° |
| 2026-05-07 02:39 | 37.10708 | -80.78222 | 28902 ft | 384 kts | 283° |
| 2026-05-07 02:39 | 37.11575 | -80.81373 | 29375 ft | 381 kts | 283° |
| 2026-05-07 02:39 | 37.12435 | -80.84500 | 29866 ft | 378 kts | 283° |
| 2026-05-07 02:40 | 37.13288 | -80.87600 | 30357 ft | 375 kts | 284° |
| 2026-05-07 02:40 | 37.14140 | -80.90682 | 30844 ft | 372 kts | 283° |
| 2026-05-07 02:40 | 37.14983 | -80.93728 | 31337 ft | 369 kts | 283° |
| 2026-05-07 02:40 | 37.15804 | -80.96702 | 31827 ft | 365 kts | 283° |
| 2026-05-07 02:41 | 37.16629 | -80.99696 | 31986 ft | 362 kts | 283° |
| 2026-05-07 02:41 | 37.17452 | -81.02702 | 32027 ft | 368 kts | 283° |
| 2026-05-07 02:41 | 37.19127 | -81.08849 | 32034 ft | 375 kts | 283° |
| 2026-05-07 02:42 | 37.20817 | -81.15028 | 32034 ft | 375 kts | 283° |
| 2026-05-07 02:42 | 37.22509 | -81.21218 | 32037 ft | 375 kts | 283° |
| 2026-05-07 02:43 | 37.24199 | -81.27410 | 32034 ft | 375 kts | 283° |
| 2026-05-07 02:43 | 37.25886 | -81.33605 | 32038 ft | 375 kts | 283° |
| 2026-05-07 02:44 | 37.27571 | -81.39799 | 32038 ft | 375 kts | 283° |
| 2026-05-07 02:44 | 37.29241 | -81.45997 | 32041 ft | 374 kts | 282° |
| 2026-05-07 02:45 | 37.30897 | -81.52144 | 32045 ft | 374 kts | 282° |
| 2026-05-07 02:45 | 37.32560 | -81.58331 | 32048 ft | 374 kts | 282° |
| 2026-05-07 02:46 | 37.34224 | -81.64517 | 32056 ft | 373 kts | 282° |
| 2026-05-07 02:46 | 37.35873 | -81.70683 | 32055 ft | 372 kts | 282° |
| 2026-05-07 02:47 | 37.37512 | -81.76836 | 32044 ft | 371 kts | 282° |
| 2026-05-07 02:47 | 37.39148 | -81.82986 | 32035 ft | 371 kts | 282° |
| 2026-05-07 02:48 | 37.40784 | -81.89132 | 32032 ft | 370 kts | 282° |
| 2026-05-07 02:48 | 37.42413 | -81.95270 | 32038 ft | 370 kts | 281° |
| 2026-05-07 02:49 | 37.44044 | -82.01418 | 32029 ft | 370 kts | 281° |
| 2026-05-07 02:49 | 37.45670 | -82.07575 | 32029 ft | 371 kts | 281° |
| 2026-05-07 02:50 | 37.47291 | -82.13735 | 32018 ft | 370 kts | 281° |
| 2026-05-07 02:50 | 37.48911 | -82.19899 | 32021 ft | 371 kts | 281° |
| 2026-05-07 02:51 | 37.50528 | -82.26066 | 32017 ft | 371 kts | 281° |
| 2026-05-07 02:51 | 37.52135 | -82.32243 | 32017 ft | 372 kts | 281° |
| 2026-05-07 02:52 | 37.53752 | -82.38435 | 32015 ft | 372 kts | 281° |
| 2026-05-07 02:52 | 37.55356 | -82.44585 | 32014 ft | 372 kts | 281° |
| 2026-05-07 02:53 | 37.56965 | -82.50789 | 32011 ft | 373 kts | 281° |
| 2026-05-07 02:53 | 37.58576 | -82.57006 | 32015 ft | 373 kts | 281° |
| 2026-05-07 02:54 | 37.60182 | -82.63227 | 32023 ft | 373 kts | 281° |
| 2026-05-07 02:54 | 37.61785 | -82.69456 | 32027 ft | 374 kts | 281° |
| 2026-05-07 02:55 | 37.63380 | -82.75688 | 32031 ft | 372 kts | 280° |
| 2026-05-07 02:55 | 37.64771 | -82.81952 | 32031 ft | 369 kts | 278° |
| 2026-05-07 02:56 | 37.66018 | -82.88232 | 32019 ft | 369 kts | 278° |
| 2026-05-07 02:56 | 37.67280 | -82.94525 | 32004 ft | 370 kts | 278° |
| 2026-05-07 02:57 | 37.68568 | -83.00774 | 32014 ft | 371 kts | 278° |
| 2026-05-07 02:57 | 37.69874 | -83.07078 | 32018 ft | 371 kts | 278° |
| 2026-05-07 02:58 | 37.71168 | -83.13373 | 32023 ft | 370 kts | 278° |
| 2026-05-07 02:58 | 37.72454 | -83.19658 | 32029 ft | 369 kts | 278° |
| 2026-05-07 02:59 | 37.73739 | -83.25941 | 32031 ft | 369 kts | 278° |
| 2026-05-07 02:59 | 37.75015 | -83.32226 | 32034 ft | 369 kts | 278° |
| 2026-05-07 03:00 | 37.76285 | -83.38509 | 32041 ft | 368 kts | 278° |
| 2026-05-07 03:00 | 37.77550 | -83.44786 | 32055 ft | 369 kts | 277° |
| 2026-05-07 03:01 | 37.78814 | -83.51056 | 32043 ft | 368 kts | 277° |
| 2026-05-07 03:01 | 37.80083 | -83.57320 | 32044 ft | 367 kts | 277° |
| 2026-05-07 03:02 | 37.81336 | -83.63574 | 32049 ft | 367 kts | 277° |
| 2026-05-07 03:02 | 37.82589 | -83.69822 | 32053 ft | 366 kts | 277° |
| 2026-05-07 03:03 | 37.83838 | -83.76065 | 32057 ft | 366 kts | 277° |
| 2026-05-07 03:03 | 37.85075 | -83.82295 | 32061 ft | 365 kts | 277° |
| 2026-05-07 03:04 | 37.86303 | -83.88510 | 32063 ft | 364 kts | 277° |
| 2026-05-07 03:04 | 37.87528 | -83.94724 | 32060 ft | 364 kts | 277° |
| 2026-05-07 03:05 | 37.88738 | -84.00885 | 32061 ft | 363 kts | 277° |
| 2026-05-07 03:05 | 37.89954 | -84.07087 | 32063 ft | 363 kts | 277° |
| 2026-05-07 03:06 | 37.91174 | -84.13272 | 32063 ft | 362 kts | 277° |
| 2026-05-07 03:06 | 37.92387 | -84.19461 | 32064 ft | 362 kts | 277° |
| 2026-05-07 03:07 | 37.93596 | -84.25672 | 32060 ft | 364 kts | 277° |
| 2026-05-07 03:07 | 37.94796 | -84.31891 | 32062 ft | 363 kts | 277° |
| 2026-05-07 03:08 | 37.95999 | -84.38105 | 32058 ft | 363 kts | 277° |
| 2026-05-07 03:08 | 37.97201 | -84.44316 | 32050 ft | 363 kts | 277° |
| 2026-05-07 03:09 | 37.98389 | -84.50551 | 32047 ft | 364 kts | 277° |
| 2026-05-07 03:09 | 37.99585 | -84.56787 | 32044 ft | 364 kts | 277° |
| 2026-05-07 03:10 | 38.00782 | -84.63011 | 32045 ft | 363 kts | 276° |
| 2026-05-07 03:10 | 38.01958 | -84.69171 | 32054 ft | 361 kts | 276° |
| 2026-05-07 03:11 | 38.03129 | -84.75348 | 32055 ft | 360 kts | 276° |
| 2026-05-07 03:11 | 38.04290 | -84.81517 | 32057 ft | 359 kts | 276° |
| 2026-05-07 03:12 | 38.05450 | -84.87685 | 32057 ft | 359 kts | 276° |
| 2026-05-07 03:12 | 38.06612 | -84.93841 | 32060 ft | 359 kts | 276° |
| 2026-05-07 03:13 | 38.07764 | -84.99971 | 32072 ft | 357 kts | 275° |
| 2026-05-07 03:13 | 38.08908 | -85.06086 | 32079 ft | 355 kts | 275° |
| 2026-05-07 03:14 | 38.10045 | -85.12163 | 32081 ft | 353 kts | 275° |
| 2026-05-07 03:15 | 38.11733 | -85.21242 | 32075 ft | 352 kts | 274° |
| 2026-05-07 03:15 | 38.12849 | -85.27285 | 32071 ft | 352 kts | 274° |
| 2026-05-07 03:16 | 38.13953 | -85.33290 | 32072 ft | 351 kts | 275° |
| 2026-05-07 03:16 | 38.15065 | -85.39327 | 32071 ft | 351 kts | 275° |
| 2026-05-07 03:17 | 38.16174 | -85.45354 | 32069 ft | 350 kts | 274° |
| 2026-05-07 03:17 | 38.17268 | -85.51385 | 32067 ft | 350 kts | 274° |
| 2026-05-07 03:17 | 38.18051 | -85.54358 | 32062 ft | 365 kts | 286° |
| 2026-05-07 03:18 | 38.19600 | -85.57044 | 32060 ft | 394 kts | 302° |
| 2026-05-07 03:18 | 38.21973 | -85.59073 | 32057 ft | 435 kts | 321° |
| 2026-05-07 03:18 | 38.25024 | -85.60093 | 32055 ft | 467 kts | 334° |
| 2026-05-07 03:19 | 38.31550 | -85.61146 | 32043 ft | 477 kts | 338° |
| 2026-05-07 03:19 | 38.38187 | -85.61918 | 31999 ft | 480 kts | 338° |
| 2026-05-07 03:19 | 38.41498 | -85.62327 | 31738 ft | 474 kts | 338° |
| 2026-05-07 03:20 | 38.44735 | -85.62754 | 31486 ft | 461 kts | 337° |
| 2026-05-07 03:20 | 38.47878 | -85.63209 | 31234 ft | 449 kts | 336° |
| 2026-05-07 03:20 | 38.50902 | -85.63677 | 30986 ft | 438 kts | 335° |
| 2026-05-07 03:20 | 38.53891 | -85.64156 | 30739 ft | 428 kts | 335° |
| 2026-05-07 03:21 | 38.56814 | -85.64623 | 30484 ft | 419 kts | 335° |
| 2026-05-07 03:21 | 38.59676 | -85.65069 | 30236 ft | 411 kts | 334° |
| 2026-05-07 03:21 | 38.62493 | -85.65496 | 29983 ft | 405 kts | 334° |
| 2026-05-07 03:21 | 38.65275 | -85.65912 | 29731 ft | 401 kts | 334° |
| 2026-05-07 03:22 | 38.68035 | -85.66322 | 29481 ft | 398 kts | 334° |
| 2026-05-07 03:22 | 38.70785 | -85.66729 | 29173 ft | 397 kts | 334° |
| 2026-05-07 03:22 | 38.73563 | -85.67156 | 28361 ft | 407 kts | 335° |
| 2026-05-07 03:22 | 38.76342 | -85.67564 | 28053 ft | 397 kts | 335° |
| 2026-05-07 03:23 | 38.79074 | -85.67952 | 27421 ft | 393 kts | 335° |
| 2026-05-07 03:23 | 38.81781 | -85.68342 | 26771 ft | 389 kts | 335° |
| 2026-05-07 03:23 | 38.84458 | -85.68731 | 26103 ft | 385 kts | 335° |
| 2026-05-07 03:23 | 38.87103 | -85.69117 | 25396 ft | 381 kts | 335° |
| 2026-05-07 03:24 | 38.89720 | -85.69506 | 24683 ft | 377 kts | 336° |
| 2026-05-07 03:24 | 38.92314 | -85.69895 | 23935 ft | 374 kts | 336° |
| 2026-05-07 03:24 | 38.94848 | -85.70277 | 23218 ft | 370 kts | 336° |
| 2026-05-07 03:24 | 38.97391 | -85.70659 | 22502 ft | 366 kts | 337° |
| 2026-05-07 03:25 | 38.99910 | -85.71033 | 21802 ft | 362 kts | 337° |
| 2026-05-07 03:25 | 39.02396 | -85.71403 | 21102 ft | 357 kts | 336° |
| 2026-05-07 03:25 | 39.04844 | -85.71799 | 20404 ft | 352 kts | 336° |
| 2026-05-07 03:25 | 39.07291 | -85.72136 | 19412 ft | 364 kts | 342° |
| 2026-05-07 03:26 | 39.09883 | -85.72215 | 18096 ft | 379 kts | 344° |
| 2026-05-07 03:26 | 39.12549 | -85.72307 | 16681 ft | 388 kts | 345° |
| 2026-05-07 03:26 | 39.15274 | -85.72475 | 15373 ft | 392 kts | 345° |
| 2026-05-07 03:26 | 39.17957 | -85.72790 | 14327 ft | 378 kts | 339° |
| 2026-05-07 03:27 | 39.20396 | -85.73749 | 13336 ft | 360 kts | 330° |
| 2026-05-07 03:27 | 39.22686 | -85.74886 | 12584 ft | 346 kts | 330° |
| 2026-05-07 03:27 | 39.24890 | -85.76047 | 11682 ft | 339 kts | 330° |
| 2026-05-07 03:27 | 39.27035 | -85.77241 | 10750 ft | 333 kts | 330° |
| 2026-05-07 03:28 | 39.29130 | -85.78482 | 10215 ft | 332 kts | 330° |
| 2026-05-07 03:28 | 39.31222 | -85.79796 | 10042 ft | 340 kts | 330° |
| 2026-05-07 03:28 | 39.33380 | -85.81189 | 9991 ft | 354 kts | 330° |
| 2026-05-07 03:28 | 39.34863 | -85.82158 | 9965 ft | 363 kts | 329° |
| 2026-05-07 03:29 | 39.37729 | -85.84032 | 9744 ft | 329 kts | 330° |
| 2026-05-07 03:29 | 39.39687 | -85.85310 | 9612 ft | 302 kts | 330° |
| 2026-05-07 03:29 | 39.41497 | -85.86484 | 9421 ft | 282 kts | 330° |
| 2026-05-07 03:29 | 39.43223 | -85.87607 | 8945 ft | 275 kts | 330° |
| 2026-05-07 03:30 | 39.44917 | -85.88740 | 8404 ft | 272 kts | 330° |
| 2026-05-07 03:30 | 39.46046 | -85.89507 | 8017 ft | 271 kts | 330° |
| 2026-05-07 03:30 | 39.47748 | -85.90524 | 7453 ft | 269 kts | 338° |
| 2026-05-07 03:30 | 39.49506 | -85.91300 | 6907 ft | 266 kts | 340° |
| 2026-05-07 03:31 | 39.51257 | -85.92048 | 6366 ft | 263 kts | 340° |
| 2026-05-07 03:31 | 39.52981 | -85.92787 | 5826 ft | 260 kts | 340° |
| 2026-05-07 03:31 | 39.54676 | -85.93520 | 5489 ft | 259 kts | 340° |
| 2026-05-07 03:31 | 39.56380 | -85.94261 | 5226 ft | 258 kts | 340° |
| 2026-05-07 03:32 | 39.58074 | -85.94998 | 4969 ft | 257 kts | 340° |
| 2026-05-07 03:32 | 39.59754 | -85.95730 | 4695 ft | 254 kts | 340° |
| 2026-05-07 03:32 | 39.61425 | -85.96457 | 4435 ft | 253 kts | 340° |
| 2026-05-07 03:32 | 39.63075 | -85.97176 | 4304 ft | 247 kts | 340° |
| 2026-05-07 03:33 | 39.64690 | -85.97876 | 4173 ft | 240 kts | 340° |
| 2026-05-07 03:33 | 39.66217 | -85.98534 | 4063 ft | 223 kts | 340° |
| 2026-05-07 03:33 | 39.67642 | -85.99144 | 4004 ft | 211 kts | 340° |
| 2026-05-07 03:33 | 39.69037 | -85.99738 | 4022 ft | 214 kts | 340° |
| 2026-05-07 03:34 | 39.70480 | -86.00355 | 4007 ft | 219 kts | 340° |
| 2026-05-07 03:34 | 39.71931 | -86.00972 | 4007 ft | 219 kts | 340° |
| 2026-05-07 03:34 | 39.73373 | -86.01589 | 4004 ft | 218 kts | 340° |
| 2026-05-07 03:34 | 39.74813 | -86.02202 | 4002 ft | 218 kts | 340° |
| 2026-05-07 03:35 | 39.76258 | -86.02820 | 4009 ft | 218 kts | 340° |
| 2026-05-07 03:35 | 39.77698 | -86.03436 | 4016 ft | 218 kts | 340° |
| 2026-05-07 03:35 | 39.79116 | -86.04055 | 4017 ft | 218 kts | 334° |
| 2026-05-07 03:35 | 39.80322 | -86.05156 | 3925 ft | 210 kts | 317° |
| 2026-05-07 03:36 | 39.81358 | -86.06457 | 3795 ft | 204 kts | 315° |
| 2026-05-07 03:36 | 39.82331 | -86.07717 | 3555 ft | 193 kts | 315° |
| 2026-05-07 03:36 | 39.83269 | -86.08939 | 3219 ft | 189 kts | 315° |
| 2026-05-07 03:36 | 39.84053 | -86.10277 | 2989 ft | 187 kts | 291° |
| 2026-05-07 03:37 | 39.84113 | -86.11984 | 3009 ft | 195 kts | 257° |
| 2026-05-07 03:37 | 39.83363 | -86.13406 | 3008 ft | 193 kts | 229° |
| 2026-05-07 03:37 | 39.82412 | -86.14608 | 3009 ft | 188 kts | 230° |
| 2026-05-07 03:37 | 39.81483 | -86.15792 | 3024 ft | 186 kts | 230° |
| 2026-05-07 03:38 | 39.80614 | -86.16898 | 3020 ft | 164 kts | 231° |
| 2026-05-07 03:38 | 39.79829 | -86.17901 | 2896 ft | 153 kts | 231° |
| 2026-05-07 03:38 | 39.79090 | -86.18849 | 2732 ft | 144 kts | 228° |
| 2026-05-07 03:38 | 39.78382 | -86.19759 | 2561 ft | 140 kts | 227° |
| 2026-05-07 03:39 | 39.77689 | -86.20649 | 2365 ft | 141 kts | 224° |
| 2026-05-07 03:39 | 39.76970 | -86.21552 | 2161 ft | 147 kts | 228° |
| 2026-05-07 03:39 | 39.76248 | -86.22499 | 2036 ft | 148 kts | 229° |
| 2026-05-07 03:39 | 39.75525 | -86.23459 | 1891 ft | 149 kts | 227° |
| 2026-05-07 03:40 | 39.74787 | -86.24384 | 1588 ft | 147 kts | 226° |
| 2026-05-07 03:40 | 39.74058 | -86.25313 | 1425 ft | 147 kts | 226° |
| 2026-05-07 03:40 | 39.73327 | -86.26237 | 1227 ft | 146 kts | 226° |
| 2026-05-07 03:40 | 39.72601 | -86.27158 | 1030 ft | 146 kts | 226° |
| 2026-05-07 03:41 | 39.71878 | -86.28086 | 812 ft | 145 kts | 225° |
| 2026-05-07 03:41 | 39.71252 | -86.28880 | 800 ft | 95 kts | 224° |
| 2026-05-07 03:41 | 39.70986 | -86.29219 | 797 ft | 28 kts | 225° |
| 2026-05-07 03:41 | 39.70822 | -86.29426 | 798 ft | 35 kts | 225° |
| 2026-05-07 03:42 | 39.70696 | -86.29674 | 799 ft | 21 kts | 263° |
| 2026-05-07 03:42 | 39.70760 | -86.29795 | 799 ft | 18 kts | 13° |
| 2026-05-07 03:42 | 39.70860 | -86.29677 | 798 ft | 21 kts | 44° |
| 2026-05-07 03:42 | 39.70973 | -86.29533 | 795 ft | 25 kts | 46° |
| 2026-05-07 03:43 | 39.71118 | -86.29399 | 796 ft | 27 kts | 16° |
| 2026-05-07 03:43 | 39.71311 | -86.29400 | 792 ft | 27 kts | 356° |
| 2026-05-07 03:43 | 39.71443 | -86.29479 | 790 ft | 17 kts | 326° |
| 2026-05-07 03:43 | 39.71454 | -86.29489 | 790 ft | 0 kts | 326° |